sensor_id;sensor_type;location;lat;lon;timestamp;pressure;altitude;pressure_sealevel;temperature;humidity
6395;BME280;3230;42.588;23.358;2023-04-03T00:00:49;90427.16;;;5.58;94.02
6395;BME280;3230;42.588;23.358;2023-04-03T00:03:15;90421.91;;;5.42;94.41
6395;BME280;3230;42.588;23.358;2023-04-03T00:05:40;90418.50;;;5.37;94.51
6395;BME280;3230;42.588;23.358;2023-04-03T00:08:07;90413.84;;;5.28;94.52
6395;BME280;3230;42.588;23.358;2023-04-03T00:10:35;90414.59;;;5.24;95.00
6395;BME280;3230;42.588;23.358;2023-04-03T00:13:01;90405.75;;;5.20;95.19
6395;BME280;3230;42.588;23.358;2023-04-03T00:15:30;90399.25;;;5.17;95.55
6395;BME280;3230;42.588;23.358;2023-04-03T00:17:55;90398.22;;;5.13;95.57
6395;BME280;3230;42.588;23.358;2023-04-03T00:20:21;90401.28;;;5.05;95.95
6395;BME280;3230;42.588;23.358;2023-04-03T00:22:46;90399.22;;;5.07;96.21
6395;BME280;3230;42.588;23.358;2023-04-03T00:25:12;90411.66;;;4.94;96.52
6395;BME280;3230;42.588;23.358;2023-04-03T00:27:38;90406.97;;;4.91;96.92
6395;BME280;3230;42.588;23.358;2023-04-03T00:30:06;90413.97;;;4.91;97.25
6395;BME280;3230;42.588;23.358;2023-04-03T00:32:32;90413.66;;;4.82;97.26
6395;BME280;3230;42.588;23.358;2023-04-03T00:34:57;90409.47;;;4.76;97.63
6395;BME280;3230;42.588;23.358;2023-04-03T00:37:23;90400.44;;;4.84;97.38
6395;BME280;3230;42.588;23.358;2023-04-03T00:39:48;90403.00;;;4.78;97.13
6395;BME280;3230;42.588;23.358;2023-04-03T00:42:14;90400.94;;;4.80;96.75
6395;BME280;3230;42.588;23.358;2023-04-03T00:47:07;90406.69;;;4.83;96.61
6395;BME280;3230;42.588;23.358;2023-04-03T00:49:33;90409.22;;;4.72;96.93
6395;BME280;3230;42.588;23.358;2023-04-03T00:51:59;90399.09;;;4.76;96.84
6395;BME280;3230;42.588;23.358;2023-04-03T00:54:25;90409.44;;;4.60;96.85
6395;BME280;3230;42.588;23.358;2023-04-03T00:56:53;90403.44;;;4.60;96.49
6395;BME280;3230;42.588;23.358;2023-04-03T00:59:27;90401.94;;;4.64;96.89
6395;BME280;3230;42.588;23.358;2023-04-03T01:01:55;90395.94;;;4.58;97.06
6395;BME280;3230;42.588;23.358;2023-04-03T01:06:56;90400.38;;;4.63;98.12
6395;BME280;3230;42.588;23.358;2023-04-03T01:09:23;90402.44;;;4.66;98.68
6395;BME280;3230;42.588;23.358;2023-04-03T01:11:48;90398.81;;;4.72;98.61
6395;BME280;3230;42.588;23.358;2023-04-03T01:14:13;90396.00;;;4.74;98.74
6395;BME280;3230;42.588;23.358;2023-04-03T01:16:39;90396.00;;;4.79;98.57
6395;BME280;3230;42.588;23.358;2023-04-03T01:19:08;90396.78;;;4.79;98.79
6395;BME280;3230;42.588;23.358;2023-04-03T01:21:51;90390.56;;;4.75;98.64
6395;BME280;3230;42.588;23.358;2023-04-03T01:24:32;90398.59;;;4.74;98.64
6395;BME280;3230;42.588;23.358;2023-04-03T01:26:59;90393.16;;;4.75;98.92
6395;BME280;3230;42.588;23.358;2023-04-03T01:29:26;90396.50;;;4.76;98.60
6395;BME280;3230;42.588;23.358;2023-04-03T01:31:52;90405.59;;;4.73;98.58
6395;BME280;3230;42.588;23.358;2023-04-03T01:34:19;90400.03;;;4.54;98.61
6395;BME280;3230;42.588;23.358;2023-04-03T01:36:45;90405.38;;;4.32;99.14
6395;BME280;3230;42.588;23.358;2023-04-03T01:39:10;90396.53;;;4.28;99.31
6395;BME280;3230;42.588;23.358;2023-04-03T01:41:36;90398.16;;;4.39;99.06
6395;BME280;3230;42.588;23.358;2023-04-03T01:44:02;90403.38;;;4.44;98.71
6395;BME280;3230;42.588;23.358;2023-04-03T01:46:28;90403.84;;;4.36;99.37
6395;BME280;3230;42.588;23.358;2023-04-03T01:48:54;90402.28;;;4.30;99.31
6395;BME280;3230;42.588;23.358;2023-04-03T01:51:19;90404.53;;;4.21;99.70
6395;BME280;3230;42.588;23.358;2023-04-03T01:53:45;90412.09;;;4.23;99.65
6395;BME280;3230;42.588;23.358;2023-04-03T01:56:10;90408.66;;;4.17;100.00
6395;BME280;3230;42.588;23.358;2023-04-03T01:58:36;90403.72;;;4.15;99.93
6395;BME280;3230;42.588;23.358;2023-04-03T02:01:01;90395.66;;;4.12;100.00
6395;BME280;3230;42.588;23.358;2023-04-03T02:03:27;90398.53;;;4.15;99.85
6395;BME280;3230;42.588;23.358;2023-04-03T02:05:52;90399.34;;;4.21;99.98
6395;BME280;3230;42.588;23.358;2023-04-03T02:08:18;90401.44;;;4.19;99.95
6395;BME280;3230;42.588;23.358;2023-04-03T02:10:46;90391.25;;;4.12;100.00
6395;BME280;3230;42.588;23.358;2023-04-03T02:13:12;90395.91;;;4.10;100.00
6395;BME280;3230;42.588;23.358;2023-04-03T02:15:38;90402.44;;;4.13;100.00
6395;BME280;3230;42.588;23.358;2023-04-03T02:18:05;90395.88;;;4.05;100.00
6395;BME280;3230;42.588;23.358;2023-04-03T02:20:30;90393.00;;;4.02;100.00
6395;BME280;3230;42.588;23.358;2023-04-03T02:22:56;90388.34;;;4.04;100.00
6395;BME280;3230;42.588;23.358;2023-04-03T02:25:21;90393.03;;;4.07;100.00
6395;BME280;3230;42.588;23.358;2023-04-03T02:27:47;90386.03;;;4.02;100.00
6395;BME280;3230;42.588;23.358;2023-04-03T02:30:12;90381.31;;;3.99;100.00
6395;BME280;3230;42.588;23.358;2023-04-03T02:32:40;90383.72;;;4.06;100.00
6395;BME280;3230;42.588;23.358;2023-04-03T02:35:06;90373.81;;;3.97;100.00
6395;BME280;3230;42.588;23.358;2023-04-03T02:37:32;90378.19;;;3.97;100.00
6395;BME280;3230;42.588;23.358;2023-04-03T02:39:58;90384.63;;;3.89;100.00
6395;BME280;3230;42.588;23.358;2023-04-03T02:42:23;90371.94;;;3.93;100.00
6395;BME280;3230;42.588;23.358;2023-04-03T02:44:48;90378.88;;;3.82;100.00
6395;BME280;3230;42.588;23.358;2023-04-03T02:47:14;90385.59;;;3.78;100.00
6395;BME280;3230;42.588;23.358;2023-04-03T02:49:39;90373.28;;;3.63;100.00
6395;BME280;3230;42.588;23.358;2023-04-03T02:52:05;90370.81;;;3.78;100.00
6395;BME280;3230;42.588;23.358;2023-04-03T02:54:30;90369.31;;;3.88;100.00
6395;BME280;3230;42.588;23.358;2023-04-03T02:56:57;90375.44;;;3.76;100.00
6395;BME280;3230;42.588;23.358;2023-04-03T02:59:23;90368.66;;;3.70;100.00
6395;BME280;3230;42.588;23.358;2023-04-03T03:01:48;90362.69;;;3.64;100.00
6395;BME280;3230;42.588;23.358;2023-04-03T03:04:14;90367.97;;;3.80;100.00
6395;BME280;3230;42.588;23.358;2023-04-03T03:06:39;90363.00;;;3.73;100.00
6395;BME280;3230;42.588;23.358;2023-04-03T03:09:05;90359.09;;;3.71;100.00
6395;BME280;3230;42.588;23.358;2023-04-03T03:11:31;90358.59;;;3.74;100.00
6395;BME280;3230;42.588;23.358;2023-04-03T03:13:57;90357.81;;;3.73;100.00
6395;BME280;3230;42.588;23.358;2023-04-03T03:16:22;90354.69;;;3.71;100.00
6395;BME280;3230;42.588;23.358;2023-04-03T03:18:48;90344.31;;;3.71;100.00
6395;BME280;3230;42.588;23.358;2023-04-03T03:21:13;90348.75;;;3.71;100.00
6395;BME280;3230;42.588;23.358;2023-04-03T03:23:39;90351.06;;;3.72;100.00
6395;BME280;3230;42.588;23.358;2023-04-03T03:26:07;90355.41;;;3.61;100.00
6395;BME280;3230;42.588;23.358;2023-04-03T03:28:34;90351.78;;;3.62;100.00
6395;BME280;3230;42.588;23.358;2023-04-03T03:31:01;90345.88;;;3.72;100.00
6395;BME280;3230;42.588;23.358;2023-04-03T03:33:27;90351.66;;;3.79;100.00
6395;BME280;3230;42.588;23.358;2023-04-03T03:35:53;90354.19;;;3.69;100.00
6395;BME280;3230;42.588;23.358;2023-04-03T03:38:19;90341.22;;;3.69;100.00
6395;BME280;3230;42.588;23.358;2023-04-03T03:40:46;90345.59;;;3.68;100.00
6395;BME280;3230;42.588;23.358;2023-04-03T03:43:11;90343.84;;;3.74;100.00
6395;BME280;3230;42.588;23.358;2023-04-03T03:45:37;90353.97;;;3.81;100.00
6395;BME280;3230;42.588;23.358;2023-04-03T03:48:03;90347.19;;;3.75;100.00
6395;BME280;3230;42.588;23.358;2023-04-03T03:50:28;90342.00;;;3.70;100.00
6395;BME280;3230;42.588;23.358;2023-04-03T03:52:53;90347.44;;;3.68;100.00
6395;BME280;3230;42.588;23.358;2023-04-03T03:55:19;90356.50;;;3.71;100.00
6395;BME280;3230;42.588;23.358;2023-04-03T03:57:44;90364.84;;;3.78;100.00
6395;BME280;3230;42.588;23.358;2023-04-03T04:00:10;90350.66;;;3.91;100.00
6395;BME280;3230;42.588;23.358;2023-04-03T04:02:36;90345.25;;;3.92;100.00
6395;BME280;3230;42.588;23.358;2023-04-03T04:05:01;90341.41;;;4.00;100.00
6395;BME280;3230;42.588;23.358;2023-04-03T04:07:27;90339.84;;;3.99;100.00
6395;BME280;3230;42.588;23.358;2023-04-03T04:09:54;90352.81;;;3.99;100.00
6395;BME280;3230;42.588;23.358;2023-04-03T04:12:20;90358.28;;;4.03;100.00
6395;BME280;3230;42.588;23.358;2023-04-03T04:14:46;90360.09;;;4.02;100.00
6395;BME280;3230;42.588;23.358;2023-04-03T04:17:15;90360.13;;;4.12;100.00
6395;BME280;3230;42.588;23.358;2023-04-03T04:19:40;90357.09;;;4.21;100.00
6395;BME280;3230;42.588;23.358;2023-04-03T04:22:06;90362.81;;;4.28;100.00
6395;BME280;3230;42.588;23.358;2023-04-03T04:24:31;90366.47;;;4.32;100.00
6395;BME280;3230;42.588;23.358;2023-04-03T04:26:57;90364.91;;;4.31;100.00
6395;BME280;3230;42.588;23.358;2023-04-03T04:29:22;90365.19;;;4.35;100.00
6395;BME280;3230;42.588;23.358;2023-04-03T04:31:48;90374.53;;;4.36;100.00
6395;BME280;3230;42.588;23.358;2023-04-03T04:34:13;90371.94;;;4.41;100.00
6395;BME280;3230;42.588;23.358;2023-04-03T04:36:39;90367.84;;;4.45;100.00
6395;BME280;3230;42.588;23.358;2023-04-03T04:39:04;90379.28;;;4.54;100.00
6395;BME280;3230;42.588;23.358;2023-04-03T04:41:30;90376.75;;;4.64;100.00
6395;BME280;3230;42.588;23.358;2023-04-03T04:43:55;90373.41;;;4.74;100.00
6395;BME280;3230;42.588;23.358;2023-04-03T04:46:21;90383.78;;;4.74;100.00
6395;BME280;3230;42.588;23.358;2023-04-03T04:48:47;90379.09;;;4.66;100.00
6395;BME280;3230;42.588;23.358;2023-04-03T04:51:14;90388.97;;;4.74;100.00
6395;BME280;3230;42.588;23.358;2023-04-03T04:53:39;90384.09;;;4.83;100.00
6395;BME280;3230;42.588;23.358;2023-04-03T04:56:05;90388.31;;;5.00;100.00
6395;BME280;3230;42.588;23.358;2023-04-03T04:58:31;90397.41;;;5.02;100.00
6395;BME280;3230;42.588;23.358;2023-04-03T05:03:25;90410.72;;;5.26;99.43
6395;BME280;3230;42.588;23.358;2023-04-03T05:05:50;90412.56;;;5.41;99.00
6395;BME280;3230;42.588;23.358;2023-04-03T05:08:16;90415.41;;;5.45;98.44
6395;BME280;3230;42.588;23.358;2023-04-03T05:10:41;90428.69;;;5.54;98.39
6395;BME280;3230;42.588;23.358;2023-04-03T05:13:07;90422.47;;;5.70;97.43
6395;BME280;3230;42.588;23.358;2023-04-03T05:15:33;90413.13;;;5.74;96.90
6395;BME280;3230;42.588;23.358;2023-04-03T05:17:58;90416.25;;;5.87;96.49
6395;BME280;3230;42.588;23.358;2023-04-03T05:20:23;90414.47;;;6.03;96.27
6395;BME280;3230;42.588;23.358;2023-04-03T05:22:49;90420.19;;;6.20;96.39
6395;BME280;3230;42.588;23.358;2023-04-03T05:25:14;90421.47;;;6.38;96.13
6395;BME280;3230;42.588;23.358;2023-04-03T05:27:40;90414.63;;;6.63;95.93
6395;BME280;3230;42.588;23.358;2023-04-03T05:30:06;90418.25;;;6.78;95.08
6395;BME280;3230;42.588;23.358;2023-04-03T05:32:32;90430.66;;;7.07;94.58
6395;BME280;3230;42.588;23.358;2023-04-03T05:34:57;90418.03;;;7.29;94.20
6395;BME280;3230;42.588;23.358;2023-04-03T05:37:23;90404.94;;;7.45;93.33
6395;BME280;3230;42.588;23.358;2023-04-03T05:39:48;90416.09;;;7.56;92.45
6395;BME280;3230;42.588;23.358;2023-04-03T05:42:14;90410.63;;;7.52;92.41
6395;BME280;3230;42.588;23.358;2023-04-03T05:44:40;90419.75;;;7.94;91.57
6395;BME280;3230;42.588;23.358;2023-04-03T05:47:06;90418.91;;;8.04;92.18
6395;BME280;3230;42.588;23.358;2023-04-03T05:49:31;90416.28;;;8.39;88.38
6395;BME280;3230;42.588;23.358;2023-04-03T05:51:56;90413.25;;;8.26;88.36
6395;BME280;3230;42.588;23.358;2023-04-03T05:54:24;90407.63;;;8.43;87.63
6395;BME280;3230;42.588;23.358;2023-04-03T05:56:50;90399.56;;;8.40;88.91
6395;BME280;3230;42.588;23.358;2023-04-03T05:59:17;90406.00;;;8.53;88.28
6395;BME280;3230;42.588;23.358;2023-04-03T06:01:42;90400.09;;;8.95;86.69
6395;BME280;3230;42.588;23.358;2023-04-03T06:04:08;90400.75;;;8.82;86.01
6395;BME280;3230;42.588;23.358;2023-04-03T06:06:45;90393.06;;;9.15;85.28
6395;BME280;3230;42.588;23.358;2023-04-03T06:09:10;90402.78;;;9.09;85.59
6395;BME280;3230;42.588;23.358;2023-04-03T06:11:36;90403.84;;;9.52;85.86
6395;BME280;3230;42.588;23.358;2023-04-03T06:14:02;90397.41;;;10.01;84.18
6395;BME280;3230;42.588;23.358;2023-04-03T06:16:28;90396.41;;;10.30;82.23
6395;BME280;3230;42.588;23.358;2023-04-03T06:18:54;90395.69;;;10.44;79.88
6395;BME280;3230;42.588;23.358;2023-04-03T06:21:20;90398.34;;;10.24;80.84
6395;BME280;3230;42.588;23.358;2023-04-03T06:23:45;90400.28;;;10.19;80.74
6395;BME280;3230;42.588;23.358;2023-04-03T06:26:11;90405.94;;;10.07;81.22
6395;BME280;3230;42.588;23.358;2023-04-03T06:28:36;90404.03;;;10.13;80.73
6395;BME280;3230;42.588;23.358;2023-04-03T06:31:02;90410.84;;;9.95;81.30
6395;BME280;3230;42.588;23.358;2023-04-03T06:33:28;90423.06;;;9.99;82.15
6395;BME280;3230;42.588;23.358;2023-04-03T06:36:00;90422.00;;;9.43;83.71
6395;BME280;3230;42.588;23.358;2023-04-03T06:38:26;90429.78;;;9.86;82.67
6395;BME280;3230;42.588;23.358;2023-04-03T06:40:51;90413.47;;;9.56;85.44
6395;BME280;3230;42.588;23.358;2023-04-03T06:43:17;90418.53;;;9.67;85.36
6395;BME280;3230;42.588;23.358;2023-04-03T06:45:43;90419.25;;;9.53;84.53
6395;BME280;3230;42.588;23.358;2023-04-03T06:48:08;90422.50;;;9.64;84.75
6395;BME280;3230;42.588;23.358;2023-04-03T06:50:34;90416.59;;;9.58;85.25
6395;BME280;3230;42.588;23.358;2023-04-03T06:52:59;90430.94;;;9.80;83.55
6395;BME280;3230;42.588;23.358;2023-04-03T06:55:26;90436.53;;;9.73;83.30
6395;BME280;3230;42.588;23.358;2023-04-03T06:57:52;90428.09;;;9.96;84.25
6395;BME280;3230;42.588;23.358;2023-04-03T07:00:17;90432.25;;;9.39;83.63
6395;BME280;3230;42.588;23.358;2023-04-03T07:02:43;90431.84;;;9.70;82.49
6395;BME280;3230;42.588;23.358;2023-04-03T07:05:09;90428.47;;;9.70;84.72
6395;BME280;3230;42.588;23.358;2023-04-03T07:07:34;90427.91;;;10.25;81.83
6395;BME280;3230;42.588;23.358;2023-04-03T07:10:00;90425.81;;;10.60;80.85
6395;BME280;3230;42.588;23.358;2023-04-03T07:12:26;90421.25;;;10.52;79.77
6395;BME280;3230;42.588;23.358;2023-04-03T07:14:51;90418.44;;;10.29;80.26
6395;BME280;3230;42.588;23.358;2023-04-03T07:17:17;90412.22;;;10.44;80.09
6395;BME280;3230;42.588;23.358;2023-04-03T07:19:42;90420.16;;;10.39;80.31
6395;BME280;3230;42.588;23.358;2023-04-03T07:22:07;90408.13;;;10.19;81.07
6395;BME280;3230;42.588;23.358;2023-04-03T07:24:33;90408.53;;;10.26;81.21
6395;BME280;3230;42.588;23.358;2023-04-03T07:26:58;90407.78;;;10.59;80.69
6395;BME280;3230;42.588;23.358;2023-04-03T07:29:24;90412.09;;;11.10;79.40
6395;BME280;3230;42.588;23.358;2023-04-03T07:31:49;90405.59;;;11.35;77.99
6395;BME280;3230;42.588;23.358;2023-04-03T07:34:15;90409.16;;;11.54;76.48
6395;BME280;3230;42.588;23.358;2023-04-03T07:36:40;90403.31;;;11.57;76.47
6395;BME280;3230;42.588;23.358;2023-04-03T07:39:06;90392.63;;;11.67;75.37
6395;BME280;3230;42.588;23.358;2023-04-03T07:41:33;90391.88;;;12.26;68.69
6395;BME280;3230;42.588;23.358;2023-04-03T07:43:58;90392.22;;;12.56;67.11
6395;BME280;3230;42.588;23.358;2023-04-03T07:46:24;90392.50;;;12.86;65.55
6395;BME280;3230;42.588;23.358;2023-04-03T07:48:49;90394.19;;;13.22;62.38
6395;BME280;3230;42.588;23.358;2023-04-03T07:51:15;90399.53;;;13.39;62.23
6395;BME280;3230;42.588;23.358;2023-04-03T07:53:41;90387.88;;;13.32;63.77
6395;BME280;3230;42.588;23.358;2023-04-03T07:56:07;90398.97;;;13.20;68.53
6395;BME280;3230;42.588;23.358;2023-04-03T07:58:32;90390.69;;;12.63;72.49
6395;BME280;3230;42.588;23.358;2023-04-03T08:00:59;90390.66;;;12.32;73.21
6395;BME280;3230;42.588;23.358;2023-04-03T08:03:24;90392.56;;;12.40;73.32
6395;BME280;3230;42.588;23.358;2023-04-03T08:05:50;90387.25;;;12.54;73.22
6395;BME280;3230;42.588;23.358;2023-04-03T08:08:19;90390.13;;;12.44;72.30
6395;BME280;3230;42.588;23.358;2023-04-03T08:10:49;90392.75;;;12.44;71.99
6395;BME280;3230;42.588;23.358;2023-04-03T08:13:15;90391.16;;;12.11;71.41
6395;BME280;3230;42.588;23.358;2023-04-03T08:15:40;90389.75;;;12.14;72.25
6395;BME280;3230;42.588;23.358;2023-04-03T08:18:06;90393.91;;;11.92;73.32
6395;BME280;3230;42.588;23.358;2023-04-03T08:20:31;90391.56;;;11.91;72.99
6395;BME280;3230;42.588;23.358;2023-04-03T08:22:57;90388.50;;;11.89;72.19
6395;BME280;3230;42.588;23.358;2023-04-03T08:25:22;90386.75;;;11.84;71.70
6395;BME280;3230;42.588;23.358;2023-04-03T08:27:47;90392.75;;;11.84;71.24
6395;BME280;3230;42.588;23.358;2023-04-03T08:30:13;90383.41;;;12.29;70.27
6395;BME280;3230;42.588;23.358;2023-04-03T08:32:39;90395.06;;;12.45;66.90
6395;BME280;3230;42.588;23.358;2023-04-03T08:35:07;90391.28;;;12.60;66.40
6395;BME280;3230;42.588;23.358;2023-04-03T08:37:35;90395.41;;;13.07;59.69
6395;BME280;3230;42.588;23.358;2023-04-03T08:40:02;90394.16;;;13.04;56.86
6395;BME280;3230;42.588;23.358;2023-04-03T08:45:09;90383.66;;;12.73;61.81
6395;BME280;3230;42.588;23.358;2023-04-03T08:47:44;90390.53;;;12.60;55.71
6395;BME280;3230;42.588;23.358;2023-04-03T08:50:14;90380.00;;;12.60;59.60
6395;BME280;3230;42.588;23.358;2023-04-03T08:52:43;90381.78;;;13.14;60.12
6395;BME280;3230;42.588;23.358;2023-04-03T08:55:30;90382.34;;;12.93;56.67
6395;BME280;3230;42.588;23.358;2023-04-03T08:58:05;90377.78;;;13.16;55.98
6395;BME280;3230;42.588;23.358;2023-04-03T09:00:45;90385.53;;;13.70;52.51
6395;BME280;3230;42.588;23.358;2023-04-03T09:03:16;90384.44;;;14.06;48.63
6395;BME280;3230;42.588;23.358;2023-04-03T09:05:51;90377.34;;;14.16;50.72
6395;BME280;3230;42.588;23.358;2023-04-03T09:08:44;90374.56;;;14.03;49.34
6395;BME280;3230;42.588;23.358;2023-04-03T09:16:21;90375.91;;;13.66;50.48
6395;BME280;3230;42.588;23.358;2023-04-03T09:18:58;90359.25;;;13.21;51.66
6395;BME280;3230;42.588;23.358;2023-04-03T09:21:38;90366.06;;;13.31;53.61
6395;BME280;3230;42.588;23.358;2023-04-03T09:24:05;90361.28;;;12.93;54.66
6395;BME280;3230;42.588;23.358;2023-04-03T09:26:44;90359.84;;;13.18;53.59
6395;BME280;3230;42.588;23.358;2023-04-03T09:29:14;90353.50;;;13.19;52.83
6395;BME280;3230;42.588;23.358;2023-04-03T09:31:43;90361.16;;;13.38;51.82
6395;BME280;3230;42.588;23.358;2023-04-03T09:34:20;90348.84;;;13.16;54.45
6395;BME280;3230;42.588;23.358;2023-04-03T09:36:50;90356.84;;;13.42;52.67
6395;BME280;3230;42.588;23.358;2023-04-03T09:39:26;90354.72;;;13.13;52.14
6395;BME280;3230;42.588;23.358;2023-04-03T09:44:26;90346.16;;;12.90;53.85
6395;BME280;3230;42.588;23.358;2023-04-03T09:46:52;90350.91;;;12.88;55.30
6395;BME280;3230;42.588;23.358;2023-04-03T09:49:18;90337.03;;;12.56;56.10
6395;BME280;3230;42.588;23.358;2023-04-03T09:51:45;90333.56;;;12.78;55.27
6395;BME280;3230;42.588;23.358;2023-04-03T09:54:31;90337.28;;;12.45;55.81
6395;BME280;3230;42.588;23.358;2023-04-03T09:57:01;90329.44;;;12.23;60.11
6395;BME280;3230;42.588;23.358;2023-04-03T09:59:26;90329.56;;;12.49;56.40
6395;BME280;3230;42.588;23.358;2023-04-03T10:04:52;90335.25;;;12.74;56.08
6395;BME280;3230;42.588;23.358;2023-04-03T10:09:57;90340.63;;;12.37;60.28
6395;BME280;3230;42.588;23.358;2023-04-03T10:12:23;90328.09;;;12.34;59.87
6395;BME280;3230;42.588;23.358;2023-04-03T10:14:57;90323.78;;;12.38;59.25
6395;BME280;3230;42.588;23.358;2023-04-03T10:23:24;90323.31;;;12.05;63.59
6395;BME280;3230;42.588;23.358;2023-04-03T10:28:50;90316.69;;;11.93;61.59
6395;BME280;3230;42.588;23.358;2023-04-03T10:31:41;90318.38;;;11.89;62.07
6395;BME280;3230;42.588;23.358;2023-04-03T10:47:20;90295.44;;;11.22;67.22
6395;BME280;3230;42.588;23.358;2023-04-03T10:52:43;90296.88;;;11.42;67.78
6395;BME280;3230;42.588;23.358;2023-04-03T10:57:40;90287.88;;;10.69;76.81
6395;BME280;3230;42.588;23.358;2023-04-03T11:00:14;90282.44;;;10.66;77.79
6395;BME280;3230;42.588;23.358;2023-04-03T11:03:00;90304.03;;;10.71;83.26
6395;BME280;3230;42.588;23.358;2023-04-03T11:05:36;90303.75;;;10.45;84.57
6395;BME280;3230;42.588;23.358;2023-04-03T11:08:09;90299.44;;;10.21;86.24
6395;BME280;3230;42.588;23.358;2023-04-03T11:10:41;90307.66;;;10.48;86.11
6395;BME280;3230;42.588;23.358;2023-04-03T11:13:12;90296.69;;;9.99;92.60
6395;BME280;3230;42.588;23.358;2023-04-03T11:15:39;90292.41;;;9.89;95.16
6395;BME280;3230;42.588;23.358;2023-04-03T11:18:15;90277.16;;;9.91;96.74
6395;BME280;3230;42.588;23.358;2023-04-03T11:20:59;90277.66;;;9.79;96.39
6395;BME280;3230;42.588;23.358;2023-04-03T11:23:32;90286.91;;;9.71;94.78
6395;BME280;3230;42.588;23.358;2023-04-03T11:26:20;90288.63;;;9.62;96.33
6395;BME280;3230;42.588;23.358;2023-04-03T11:28:52;90290.84;;;9.36;97.16
6395;BME280;3230;42.588;23.358;2023-04-03T11:36:55;90276.16;;;9.02;100.00
6395;BME280;3230;42.588;23.358;2023-04-03T11:39:34;90277.56;;;9.13;100.00
6395;BME280;3230;42.588;23.358;2023-04-03T11:44:39;90274.72;;;9.28;100.00
6395;BME280;3230;42.588;23.358;2023-04-03T11:47:06;90277.84;;;9.11;100.00
6395;BME280;3230;42.588;23.358;2023-04-03T11:49:56;90277.41;;;8.85;100.00
6395;BME280;3230;42.588;23.358;2023-04-03T12:26:46;90277.19;;;7.79;100.00
6395;BME280;3230;42.588;23.358;2023-04-03T12:29:23;90272.31;;;7.73;100.00
6395;BME280;3230;42.588;23.358;2023-04-03T12:34:26;90251.47;;;7.38;100.00
6395;BME280;3230;42.588;23.358;2023-04-03T12:37:06;90246.03;;;7.34;100.00
6395;BME280;3230;42.588;23.358;2023-04-03T12:39:51;90240.09;;;7.58;100.00
6395;BME280;3230;42.588;23.358;2023-04-03T12:42:29;90230.81;;;7.47;100.00
6395;BME280;3230;42.588;23.358;2023-04-03T12:47:27;90215.56;;;7.30;100.00
6395;BME280;3230;42.588;23.358;2023-04-03T12:49:54;90223.06;;;7.36;100.00
6395;BME280;3230;42.588;23.358;2023-04-03T12:52:43;90239.38;;;7.18;100.00
6395;BME280;3230;42.588;23.358;2023-04-03T12:55:19;90219.50;;;7.27;100.00
6395;BME280;3230;42.588;23.358;2023-04-03T12:57:45;90226.75;;;7.30;100.00
6395;BME280;3230;42.588;23.358;2023-04-03T13:00:33;90224.28;;;7.15;100.00
6395;BME280;3230;42.588;23.358;2023-04-03T13:03:01;90229.88;;;7.32;100.00
6395;BME280;3230;42.588;23.358;2023-04-03T13:05:28;90229.41;;;7.25;100.00
6395;BME280;3230;42.588;23.358;2023-04-03T13:08:19;90219.53;;;7.22;100.00
6395;BME280;3230;42.588;23.358;2023-04-03T13:11:04;90225.00;;;7.20;100.00
6395;BME280;3230;42.588;23.358;2023-04-03T13:13:31;90223.19;;;7.21;100.00
6395;BME280;3230;42.588;23.358;2023-04-03T13:15:57;90218.00;;;7.16;100.00
6395;BME280;3230;42.588;23.358;2023-04-03T13:18:27;90231.97;;;7.30;100.00
6395;BME280;3230;42.588;23.358;2023-04-03T13:21:19;90225.34;;;7.09;100.00
6395;BME280;3230;42.588;23.358;2023-04-03T13:23:47;90219.28;;;7.18;100.00
6395;BME280;3230;42.588;23.358;2023-04-03T13:26:17;90223.44;;;7.25;100.00
6395;BME280;3230;42.588;23.358;2023-04-03T13:28:44;90211.84;;;7.07;100.00
6395;BME280;3230;42.588;23.358;2023-04-03T13:36:46;90212.47;;;6.93;100.00
6395;BME280;3230;42.588;23.358;2023-04-03T13:39:23;90223.72;;;6.83;100.00
6395;BME280;3230;42.588;23.358;2023-04-03T13:41:55;90212.47;;;6.93;100.00
6395;BME280;3230;42.588;23.358;2023-04-03T13:46:55;90204.66;;;6.88;100.00
6395;BME280;3230;42.588;23.358;2023-04-03T13:49:32;90205.13;;;6.95;100.00
6395;BME280;3230;42.588;23.358;2023-04-03T13:51:58;90195.38;;;6.77;100.00
6395;BME280;3230;42.588;23.358;2023-04-03T13:54:45;90192.09;;;6.61;100.00
6395;BME280;3230;42.588;23.358;2023-04-03T13:57:14;90198.84;;;6.62;100.00
6395;BME280;3230;42.588;23.358;2023-04-03T13:59:41;90190.66;;;6.79;100.00
6395;BME280;3230;42.588;23.358;2023-04-03T14:02:20;90187.25;;;6.83;100.00
6395;BME280;3230;42.588;23.358;2023-04-03T14:04:53;90194.31;;;6.78;100.00
6395;BME280;3230;42.588;23.358;2023-04-03T14:07:24;90187.06;;;6.69;100.00
6395;BME280;3230;42.588;23.358;2023-04-03T14:09:50;90177.66;;;6.79;100.00
6395;BME280;3230;42.588;23.358;2023-04-03T14:14:42;90184.09;;;6.86;100.00
6395;BME280;3230;42.588;23.358;2023-04-03T14:17:19;90182.31;;;6.82;100.00
6395;BME280;3230;42.588;23.358;2023-04-03T14:19:47;90178.09;;;6.91;100.00
6395;BME280;3230;42.588;23.358;2023-04-03T14:22:15;90177.38;;;6.80;100.00
6395;BME280;3230;42.588;23.358;2023-04-03T14:24:41;90174.50;;;6.82;100.00
6395;BME280;3230;42.588;23.358;2023-04-03T14:27:25;90173.25;;;6.74;100.00
6395;BME280;3230;42.588;23.358;2023-04-03T14:29:52;90174.84;;;6.70;100.00
6395;BME280;3230;42.588;23.358;2023-04-03T14:32:20;90178.66;;;6.83;100.00
6395;BME280;3230;42.588;23.358;2023-04-03T14:34:47;90182.47;;;6.96;100.00
6395;BME280;3230;42.588;23.358;2023-04-03T14:37:16;90183.72;;;7.03;100.00
6395;BME280;3230;42.588;23.358;2023-04-03T14:39:42;90182.25;;;6.92;100.00
6395;BME280;3230;42.588;23.358;2023-04-03T14:42:20;90169.13;;;7.02;100.00
6395;BME280;3230;42.588;23.358;2023-04-03T14:44:46;90172.25;;;7.04;100.00
6395;BME280;3230;42.588;23.358;2023-04-03T14:47:15;90171.13;;;7.16;100.00
6395;BME280;3230;42.588;23.358;2023-04-03T14:49:42;90177.00;;;6.97;100.00
6395;BME280;3230;42.588;23.358;2023-04-03T14:52:23;90180.78;;;6.81;100.00
6395;BME280;3230;42.588;23.358;2023-04-03T14:54:50;90170.31;;;6.86;100.00
6395;BME280;3230;42.588;23.358;2023-04-03T14:57:16;90153.91;;;6.85;100.00
6395;BME280;3230;42.588;23.358;2023-04-03T14:59:43;90152.63;;;6.83;100.00
6395;BME280;3230;42.588;23.358;2023-04-03T15:02:33;90161.84;;;6.65;100.00
6395;BME280;3230;42.588;23.358;2023-04-03T15:05:00;90155.03;;;6.74;100.00
6395;BME280;3230;42.588;23.358;2023-04-03T15:07:30;90150.72;;;6.59;100.00
6395;BME280;3230;42.588;23.358;2023-04-03T15:09:56;90147.22;;;6.29;100.00